Time;durP1;ratioP1;P1;durP2;ratioP2;P2;SDS_P1;SDS_P2;PMS_P1;PMS_P2;Temp;Humidity;BMP_temperature;BMP_pressure;BME280_temperature;BME280_humidity;BME280_pressure;Samples;Min_cycle;Max_cycle;Signal;HPM_P1;HPM_P2
2022/03/26 00:00:16;;;;;;;7.28;5.32;;;;;;;18.58;40.76;99804.50;4964320;28;20145;-88
2022/03/26 00:02:42;;;;;;;6.40;4.95;;;;;;;18.57;41.24;99795.75;4963962;28;20043;-89
2022/03/26 00:05:08;;;;;;;7.75;5.00;;;;;;;18.57;40.81;99800.16;4963629;28;20536;-88
2022/03/26 00:07:34;;;;;;;7.45;5.05;;;;;;;18.56;40.88;99806.38;4963157;28;20105;-87
2022/03/26 00:09:59;;;;;;;7.45;5.55;;;;;;;18.55;41.05;99804.66;4963420;28;20033;-87
2022/03/26 00:12:25;;;;;;;6.47;5.03;;;;;;;18.55;40.96;99796.75;4963178;28;20026;-89
2022/03/26 00:14:51;;;;;;;7.35;5.35;;;;;;;18.55;40.96;99802.03;4962645;28;20027;-88
2022/03/26 00:17:16;;;;;;;7.13;5.07;;;;;;;18.54;40.98;99808.25;4962763;28;20022;-88
2022/03/26 00:19:42;;;;;;;7.28;4.82;;;;;;;18.54;40.89;99810.88;4962167;28;20033;-87
2022/03/26 00:22:07;;;;;;;8.25;5.57;;;;;;;18.53;40.99;99807.38;4962671;28;20054;-88
2022/03/26 00:24:33;;;;;;;7.50;5.03;;;;;;;18.54;40.67;99813.53;4963724;28;20057;-88
2022/03/26 00:26:59;;;;;;;7.05;5.32;;;;;;;18.51;40.84;99810.06;4962369;28;20034;-89
2022/03/26 00:29:24;;;;;;;8.68;5.38;;;;;;;18.51;40.97;99804.78;4962456;28;20409;-88
2022/03/26 00:31:50;;;;;;;6.32;4.88;;;;;;;18.50;40.87;99797.78;4962246;28;20022;-89
2022/03/26 00:34:15;;;;;;;7.28;5.35;;;;;;;18.51;40.80;99802.16;4962556;28;20038;-88
2022/03/26 00:36:41;;;;;;;7.38;5.25;;;;;;;18.49;41.14;99796.09;4962848;28;20078;-89
2022/03/26 00:39:07;;;;;;;7.65;5.25;;;;;;;18.51;40.86;99798.66;4962549;28;20034;-88
2022/03/26 00:41:33;;;;;;;6.20;4.97;;;;;;;18.48;40.77;99794.38;4962832;28;20349;-87
2022/03/26 00:43:59;;;;;;;7.50;5.57;;;;;;;18.49;40.97;99796.09;4962848;28;20037;-88
2022/03/26 00:46:27;;;;;;;7.20;5.35;;;;;;;18.48;40.82;99799.66;4979643;28;20049;-87
2022/03/26 00:48:53;;;;;;;7.13;5.20;;;;;;;18.47;41.05;99803.22;4962387;28;20022;-87
2022/03/26 00:51:18;;;;;;;7.70;5.38;;;;;;;18.48;40.90;99799.66;4962599;28;20045;-86
2022/03/26 00:53:45;;;;;;;7.07;5.15;;;;;;;18.46;40.96;99804.13;4962441;28;20065;-86
2022/03/26 00:56:12;;;;;;;7.60;5.28;;;;;;;18.46;40.96;99796.22;4964001;28;20019;-88
2022/03/26 00:58:39;;;;;;;6.63;5.13;;;;;;;18.45;40.81;99794.50;4963000;28;20022;-89
2022/03/26 01:01:04;;;;;;;6.65;4.85;;;;;;;18.44;41.18;99798.06;4962996;28;20334;-87
2022/03/26 01:03:30;;;;;;;6.97;5.45;;;;;;;18.44;41.01;99795.44;4962614;28;20057;-89
2022/03/26 01:05:56;;;;;;;7.47;5.43;;;;;;;18.45;41.27;99793.66;4980368;28;20034;-87
2022/03/26 01:08:22;;;;;;;8.90;5.15;;;;;;;18.44;40.87;99787.50;4962759;28;20436;-88
2022/03/26 01:10:48;;;;;;;7.00;5.30;;;;;;;18.43;40.89;99791.09;4962505;28;20026;-88
2022/03/26 01:13:14;;;;;;;6.57;4.75;;;;;;;18.42;41.14;99781.44;4962878;28;20399;-88
2022/03/26 01:15:40;;;;;;;6.95;5.00;;;;;;;18.42;41.04;99784.09;4963505;28;20468;-87
2022/03/26 01:18:06;;;;;;;6.28;4.78;;;;;;;18.42;41.13;99777.94;4980286;28;20035;-88
2022/03/26 01:20:32;;;;;;;7.95;5.50;;;;;;;18.42;40.85;99776.16;4963104;28;20027;-87
2022/03/26 01:22:57;;;;;;;7.30;4.82;;;;;;;18.41;41.23;99776.22;4980395;28;20074;-87
2022/03/26 01:25:24;;;;;;;6.10;4.72;;;;;;;18.41;41.07;99769.16;4963346;28;20444;-87
2022/03/26 01:27:50;;;;;;;7.38;5.15;;;;;;;18.41;40.94;99761.25;4965748;28;20054;-89
2022/03/26 01:30:17;;;;;;;7.13;5.30;;;;;;;18.40;40.76;99764.78;4965573;28;20042;-89
2022/03/26 01:32:44;;;;;;;6.65;5.20;;;;;;;18.40;40.90;99758.66;4966587;28;20472;-89
2022/03/26 01:35:10;;;;;;;6.85;5.38;;;;;;;18.38;41.10;99761.38;4964426;28;20018;-88
2022/03/26 01:37:36;;;;;;;7.95;4.78;;;;;;;18.38;41.10;99761.38;4960587;28;20031;-88
2022/03/26 01:40:04;;;;;;;6.95;5.20;;;;;;;18.37;40.65;99757.00;4961098;28;20041;-89
2022/03/26 01:42:30;;;;;;;6.57;4.95;;;;;;;18.37;40.83;99754.38;4966189;28;20034;-90
2022/03/26 01:44:55;;;;;;;6.90;5.03;;;;;;;18.37;40.84;99754.38;4967754;28;20029;-90
2022/03/26 01:47:21;;;;;;;8.32;5.85;;;;;;;18.35;40.92;99750.94;4967993;28;20023;-89
2022/03/26 01:49:47;;;;;;;6.10;4.90;;;;;;;18.36;40.70;99747.38;4967944;28;20046;-89
2022/03/26 01:52:12;;;;;;;6.25;4.45;;;;;;;18.35;40.85;99751.78;4967942;28;20369;-90
2022/03/26 01:54:40;;;;;;;7.22;5.20;;;;;;;18.34;40.63;99749.22;4967130;28;20022;-90
2022/03/26 01:57:07;;;;;;;7.28;5.18;;;;;;;18.32;40.75;99746.66;4964437;28;20030;-88
2022/03/26 01:59:33;;;;;;;6.60;4.95;;;;;;;18.33;40.63;99747.50;4962708;28;20093;-88
2022/03/26 02:01:59;;;;;;;7.25;5.40;;;;;;;18.31;40.77;99741.44;4977820;28;20038;-88
2022/03/26 02:04:25;;;;;;;6.63;5.00;;;;;;;18.30;40.58;99735.28;4941703;29;20425;-88
2022/03/26 02:06:50;;;;;;;7.72;4.90;;;;;;;18.29;40.41;99735.34;4940613;29;20027;-88
2022/03/26 02:09:16;;;;;;;6.68;4.78;;;;;;;18.28;40.70;99733.63;4941231;29;20357;-89
2022/03/26 02:11:46;;;;;;;6.78;5.13;;;;;;;18.28;40.73;99733.63;4941347;29;20476;-88
2022/03/26 02:14:12;;;;;;;7.03;5.07;;;;;;;18.27;40.27;99731.94;4941245;29;20042;-87
2022/03/26 02:16:40;;;;;;;6.43;5.25;;;;;;;18.27;40.01;99731.94;4958205;29;20027;-87
2022/03/26 02:19:07;;;;;;;6.88;4.93;;;;;;;18.24;40.31;99736.44;4957951;29;20343;-85
2022/03/26 02:21:35;;;;;;;6.78;4.88;;;;;;;18.25;40.22;99734.63;4940994;29;20023;-87
2022/03/26 02:24:06;;;;;;;7.35;5.32;;;;;;;18.22;40.32;99730.34;4940943;29;20492;-86
2022/03/26 02:26:32;;;;;;;6.75;5.07;;;;;;;18.21;40.12;99738.34;4940504;29;20358;-87
2022/03/26 02:29:04;;;;;;;7.20;5.07;;;;;;;18.21;40.96;99728.63;4941793;29;20026;-85
2022/03/26 02:31:30;;;;;;;6.45;4.72;;;;;;;18.19;40.36;99730.50;4941255;29;20582;-88
2022/03/26 02:33:56;;;;;;;6.97;5.18;;;;;;;18.19;40.16;99727.84;4941286;29;20038;-87
2022/03/26 02:36:21;;;;;;;7.78;5.32;;;;;;;18.18;40.00;99723.50;4940886;29;20377;-87
2022/03/26 02:38:47;;;;;;;6.38;4.95;;;;;;;18.18;40.27;99731.44;4941584;29;20058;-87
2022/03/26 02:41:12;;;;;;;6.90;5.35;;;;;;;18.17;40.21;99732.34;4941418;29;20031;-87
2022/03/26 02:43:38;;;;;;;6.78;4.97;;;;;;;18.17;39.87;99732.34;4941341;29;20027;-88
2022/03/26 02:46:04;;;;;;;7.05;5.22;;;;;;;18.16;40.05;99730.63;4940668;29;20074;-88
2022/03/26 02:48:31;;;;;;;7.50;5.50;;;;;;;18.15;40.16;99728.06;4940627;29;20054;-86
2022/03/26 02:50:57;;;;;;;7.47;5.47;;;;;;;18.14;40.33;99726.34;4957392;29;20448;-88
2022/03/26 02:53:22;;;;;;;6.35;4.82;;;;;;;18.13;39.81;99722.84;4940676;29;20027;-87
2022/03/26 02:55:48;;;;;;;6.68;4.95;;;;;;;18.13;39.92;99724.63;4940287;29;20409;-88
2022/03/26 02:58:14;;;;;;;6.70;4.88;;;;;;;18.11;40.09;99722.91;4940773;29;20048;-87
2022/03/26 03:00:39;;;;;;;7.35;5.32;;;;;;;18.11;39.90;99722.03;4941744;29;20024;-88
2022/03/26 03:03:09;;;;;;;6.32;4.57;;;;;;;18.10;40.02;99712.41;4948455;28;20047;-88
2022/03/26 03:05:34;;;;;;;6.35;4.95;;;;;;;18.09;39.85;99723.91;4959547;28;20185;-89
2022/03/26 03:08:01;;;;;;;7.75;5.10;;;;;;;18.06;40.14;99716.13;4959176;28;20121;-88
2022/03/26 03:10:28;;;;;;;6.25;4.90;;;;;;;18.07;39.79;99723.13;4976523;28;20027;-88
2022/03/26 03:12:54;;;;;;;7.82;5.20;;;;;;;18.06;39.93;99718.78;4959199;28;20077;-87
2022/03/26 03:15:20;;;;;;;6.88;4.50;;;;;;;18.06;40.03;99724.06;4959245;28;20065;-87
2022/03/26 03:17:48;;;;;;;7.28;5.28;;;;;;;18.05;40.17;99724.94;4959922;28;20026;-88
2022/03/26 03:20:15;;;;;;;7.30;4.85;;;;;;;18.04;40.25;99725.84;4980411;28;20110;-88
2022/03/26 03:22:41;;;;;;;7.72;6.00;;;;;;;18.02;40.11;99727.72;4980160;28;20046;-88
2022/03/26 03:25:08;;;;;;;6.43;5.05;;;;;;;18.02;40.12;99727.72;4980035;28;20146;-85
2022/03/26 03:27:35;;;;;;;6.05;4.68;;;;;;;18.02;39.75;99727.72;4962858;28;20047;-87
2022/03/26 03:30:00;;;;;;;6.30;4.50;;;;;;;18.00;39.85;99714.56;4963403;28;20089;-88
2022/03/26 03:32:26;;;;;;;7.28;5.15;;;;;;;17.98;39.99;99725.19;4964797;28;20035;-87
2022/03/26 03:34:52;;;;;;;6.20;4.78;;;;;;;18.00;39.82;99721.66;4964313;28;20062;-88
2022/03/26 03:37:19;;;;;;;6.13;4.80;;;;;;;17.96;39.62;99719.13;4964235;28;20089;-89
2022/03/26 03:39:44;;;;;;;6.68;4.78;;;;;;;17.96;39.94;99723.56;4964775;28;20437;-87
2022/03/26 03:42:10;;;;;;;7.03;5.18;;;;;;;17.95;39.67;99728.00;4982277;28;20035;-88
2022/03/26 03:44:36;;;;;;;7.13;4.65;;;;;;;17.93;39.88;99718.41;4965059;28;20448;-87
2022/03/26 03:47:02;;;;;;;7.32;4.85;;;;;;;17.93;39.69;99719.25;4982676;28;20041;-87
2022/03/26 03:49:31;;;;;;;5.93;4.75;;;;;;;17.94;39.74;99717.50;4965394;28;20030;-87
2022/03/26 03:51:58;;;;;;;7.45;5.13;;;;;;;17.94;39.72;99720.13;4965198;28;20034;-87
2022/03/26 03:54:24;;;;;;;6.07;4.47;;;;;;;17.91;39.84;99718.47;4982228;28;20033;-87
2022/03/26 03:56:50;;;;;;;6.75;4.53;;;;;;;17.90;39.98;99707.97;4965043;28;20027;-88
2022/03/26 03:59:15;;;;;;;5.72;4.03;;;;;;;17.90;39.90;99708.84;4982561;28;20042;-89
2022/03/26 04:01:41;;;;;;;6.22;4.40;;;;;;;17.89;40.12;99715.06;4965833;28;20078;-87
2022/03/26 04:04:07;;;;;;;6.50;4.78;;;;;;;17.89;39.88;99711.56;4968354;28;20066;-89
2022/03/26 04:06:32;;;;;;;5.80;4.28;;;;;;;17.88;40.14;99713.34;4948627;29;20046;-89
2022/03/26 04:08:58;;;;;;;6.50;4.35;;;;;;;17.88;40.17;99721.28;4949394;29;20035;-89
2022/03/26 04:11:23;;;;;;;5.97;4.28;;;;;;;17.87;39.89;99723.97;4949215;29;20055;-88
2022/03/26 04:13:52;;;;;;;6.35;4.63;;;;;;;17.87;39.85;99719.53;4966896;29;20035;-89
2022/03/26 04:16:19;;;;;;;6.22;4.57;;;;;;;17.85;40.24;99726.66;4950630;29;20437;-89
2022/03/26 04:18:45;;;;;;;6.47;4.68;;;;;;;17.84;40.25;99725.81;4950216;29;20027;-89
2022/03/26 04:21:10;;;;;;;6.05;4.38;;;;;;;17.82;40.24;99725.03;4949645;29;20512;-88
2022/03/26 04:23:36;;;;;;;6.15;4.22;;;;;;;17.83;40.04;99723.25;4949418;29;20089;-89
2022/03/26 04:26:01;;;;;;;6.90;4.70;;;;;;;17.82;40.45;99732.09;4950068;29;20501;-89
2022/03/26 04:28:27;;;;;;;5.68;4.13;;;;;;;17.83;40.39;99720.63;4945052;29;20468;-88
2022/03/26 04:30:53;;;;;;;6.80;4.82;;;;;;;17.82;40.39;99732.94;4959897;28;20457;-88
2022/03/26 04:33:18;;;;;;;5.43;3.92;;;;;;;17.82;40.33;99732.09;4944080;29;20038;-87
2022/03/26 04:35:44;;;;;;;5.93;4.40;;;;;;;17.81;40.60;99719.81;4942412;29;20023;-89
2022/03/26 04:38:09;;;;;;;6.22;4.65;;;;;;;17.82;40.73;99732.09;4942215;29;20042;-87
2022/03/26 04:40:35;;;;;;;6.53;4.50;;;;;;;17.81;40.45;99735.63;4942316;29;20361;-88
2022/03/26 04:43:01;;;;;;;6.75;4.47;;;;;;;17.81;40.53;99730.34;4942179;29;20342;-87
2022/03/26 04:45:26;;;;;;;6.28;4.30;;;;;;;17.80;40.66;99733.94;4942148;29;20075;-88
2022/03/26 04:47:52;;;;;;;6.00;4.30;;;;;;;17.80;40.39;99736.56;4942545;29;20027;-89
2022/03/26 04:50:17;;;;;;;6.13;4.05;;;;;;;17.78;40.53;99739.25;4942174;29;20027;-88
2022/03/26 04:52:43;;;;;;;5.55;4.10;;;;;;;17.79;40.45;99737.50;4942077;29;20038;-86
2022/03/26 04:55:10;;;;;;;5.63;4.28;;;;;;;17.79;40.76;99738.38;4941916;29;20342;-87
2022/03/26 04:57:43;;;;;;;5.88;4.40;;;;;;;17.78;40.85;99738.44;4941853;29;20027;-87
2022/03/26 05:00:11;;;;;;;6.95;4.47;;;;;;;17.78;40.61;99741.91;4941884;29;20031;-85
2022/03/26 05:02:38;;;;;;;5.75;4.13;;;;;;;17.78;40.57;99739.25;4960712;28;20134;-86
2022/03/26 05:05:05;;;;;;;6.80;4.63;;;;;;;17.77;40.59;99737.56;4943776;29;20027;-88
2022/03/26 05:07:46;;;;;;;6.40;4.47;;;;;;;17.77;40.79;99736.72;4941889;29;20042;-89
2022/03/26 05:10:23;;;;;;;6.05;4.13;;;;;;;17.76;40.84;99746.41;4959008;29;20059;-87
2022/03/26 05:12:49;;;;;;;5.72;4.30;;;;;;;17.76;40.54;99743.75;4941884;29;20032;-86
2022/03/26 05:15:17;;;;;;;6.95;4.22;;;;;;;17.75;40.43;99757.88;4942157;29;20098;-88
2022/03/26 05:17:43;;;;;;;6.00;4.50;;;;;;;17.74;40.53;99752.66;4941750;29;20114;-86
2022/03/26 05:20:12;;;;;;;5.55;3.95;;;;;;;17.74;40.56;99756.19;4941709;29;20122;-88
2022/03/26 05:22:39;;;;;;;6.05;4.22;;;;;;;17.75;40.67;99762.31;4941628;29;20035;-85
2022/03/26 05:25:05;;;;;;;6.28;4.22;;;;;;;17.73;40.61;99754.47;4941361;29;20049;-88
2022/03/26 05:27:30;;;;;;;6.32;4.10;;;;;;;17.73;40.88;99753.59;4958629;29;20027;-85
2022/03/26 05:29:56;;;;;;;5.00;3.72;;;;;;;17.74;40.62;99755.31;4941301;29;20039;-84
2022/03/26 05:32:21;;;;;;;5.93;4.18;;;;;;;17.74;40.95;99755.31;4941246;29;20055;-88
2022/03/26 05:34:48;;;;;;;5.95;4.30;;;;;;;17.74;40.70;99757.94;4944277;29;20031;-87
2022/03/26 05:37:13;;;;;;;5.75;3.80;;;;;;;17.73;40.76;99758.88;4941528;29;20038;-88
2022/03/26 05:39:39;;;;;;;5.95;4.25;;;;;;;17.73;40.70;99758.88;4959066;29;20031;-86
2022/03/26 05:42:05;;;;;;;5.68;4.00;;;;;;;17.73;40.90;99758.88;4946702;29;20027;-89
2022/03/26 05:44:35;;;;;;;5.32;4.22;;;;;;;17.72;40.96;99758.00;4955790;29;20038;-91
2022/03/26 05:51:18;;;;;;;5.88;4.43;;;;;;;17.70;40.92;99766.00;4965796;28;20070;-89
2022/03/26 05:53:44;;;;;;;6.28;3.97;;;;;;;17.70;40.41;99771.28;4942371;29;20043;-88
2022/03/26 05:56:10;;;;;;;6.70;4.20;;;;;;;17.70;40.53;99771.28;4941158;29;20031;-87
2022/03/26 05:58:36;;;;;;;5.85;4.20;;;;;;;17.69;40.43;99777.47;4958449;29;20034;-88
2022/03/26 06:01:02;;;;;;;6.32;4.15;;;;;;;17.69;40.72;99769.56;4941147;29;20042;-88
2022/03/26 06:03:28;;;;;;;5.18;3.83;;;;;;;17.68;40.53;99767.84;4958244;28;20392;-87
2022/03/26 06:05:53;;;;;;;6.05;4.47;;;;;;;17.67;40.39;99773.22;4941574;29;20373;-88
2022/03/26 06:08:19;;;;;;;6.18;4.13;;;;;;;17.66;40.51;99769.69;4941463;29;20062;-87
2022/03/26 06:10:45;;;;;;;6.03;4.53;;;;;;;17.66;40.70;99780.25;4942333;29;20045;-88
2022/03/26 06:13:10;;;;;;;6.32;4.32;;;;;;;17.66;40.76;99784.66;4960453;29;20086;-87
2022/03/26 06:15:36;;;;;;;5.60;4.00;;;;;;;17.64;40.73;99782.09;4960140;29;20031;-89
2022/03/26 06:18:02;;;;;;;6.22;4.18;;;;;;;17.64;40.62;99782.09;4942548;29;20027;-87
2022/03/26 06:20:28;;;;;;;5.82;4.05;;;;;;;17.65;40.76;99783.81;4942703;29;20118;-88
2022/03/26 06:22:54;;;;;;;6.63;4.00;;;;;;;17.63;40.55;99785.66;4943193;29;20067;-87
2022/03/26 06:25:20;;;;;;;5.55;3.92;;;;;;;17.64;40.69;99786.50;4943236;29;20038;-87
2022/03/26 06:27:49;;;;;;;6.82;4.15;;;;;;;17.64;40.76;99789.16;4943137;29;20477;-88
2022/03/26 06:30:16;;;;;;;7.03;4.53;;;;;;;17.63;40.47;99790.91;4943564;29;20035;-89
2022/03/26 06:32:42;;;;;;;6.72;4.60;;;;;;;17.63;40.49;99790.09;4944246;29;20062;-88
2022/03/26 06:35:08;;;;;;;5.90;4.03;;;;;;;17.62;40.66;99791.84;4960872;29;20043;-87
2022/03/26 06:37:34;;;;;;;5.22;3.80;;;;;;;17.62;40.77;99799.78;4963332;29;20035;-89
2022/03/26 06:40:00;;;;;;;6.32;4.53;;;;;;;17.61;40.64;99798.06;4947621;29;20027;-90
2022/03/26 06:42:25;;;;;;;6.30;4.20;;;;;;;17.61;40.79;99799.81;4947004;29;20023;-90
2022/03/26 06:44:58;;;;;;;6.40;4.18;;;;;;;17.61;40.76;99802.47;4947852;29;20031;-89
2022/03/26 06:47:27;;;;;;;7.35;4.45;;;;;;;17.61;40.68;99802.47;4947863;29;20039;-90
2022/03/26 06:49:53;;;;;;;6.28;4.28;;;;;;;17.61;40.70;99797.19;4946749;29;20031;-89
2022/03/26 06:52:21;;;;;;;6.13;4.28;;;;;;;17.61;40.88;99803.34;4947230;29;20041;-90
2022/03/26 06:54:47;;;;;;;6.68;4.45;;;;;;;17.60;40.78;99804.25;4946460;29;20058;-89
2022/03/26 06:57:12;;;;;;;7.35;4.70;;;;;;;17.59;40.71;99805.19;4944722;29;20428;-86
2022/03/26 06:59:38;;;;;;;6.47;4.50;;;;;;;17.60;40.92;99801.63;4940613;29;20042;-87
2022/03/26 07:02:04;;;;;;;6.05;4.22;;;;;;;17.60;40.74;99806.91;4940005;28;20125;-85
2022/03/26 07:04:30;;;;;;;5.65;4.40;;;;;;;17.60;40.96;99806.91;4939730;29;20046;-86
2022/03/26 07:06:55;;;;;;;6.65;4.20;;;;;;;17.61;41.15;99808.59;4940751;29;20031;-87
2022/03/26 07:09:23;;;;;;;6.47;4.30;;;;;;;17.60;41.08;99796.34;4940895;29;20094;-88
2022/03/26 07:11:50;;;;;;;7.20;4.78;;;;;;;17.61;40.95;99805.09;4939647;29;20034;-88
2022/03/26 07:14:15;;;;;;;7.18;4.50;;;;;;;17.61;41.28;99810.38;4939792;29;20035;-88
2022/03/26 07:16:41;;;;;;;5.93;4.50;;;;;;;17.60;41.03;99806.03;4939620;29;20032;-88
2022/03/26 07:19:06;;;;;;;6.97;4.60;;;;;;;17.61;41.17;99805.97;4939851;29;20039;-87
2022/03/26 07:21:32;;;;;;;6.55;4.80;;;;;;;17.61;41.02;99802.47;4939943;29;20361;-87
2022/03/26 07:23:57;;;;;;;5.80;4.45;;;;;;;17.59;41.24;99802.56;4940048;29;20050;-88
2022/03/26 07:26:23;;;;;;;6.60;4.75;;;;;;;17.57;41.14;99797.31;4939707;29;20042;-87
2022/03/26 07:28:50;;;;;;;6.43;4.55;;;;;;;17.59;41.17;99799.91;4939678;29;20042;-86
2022/03/26 07:31:16;;;;;;;7.63;4.60;;;;;;;17.59;41.43;99799.91;4957264;29;20035;-85
2022/03/26 07:33:41;;;;;;;6.82;4.50;;;;;;;17.60;41.40;99804.25;4959525;29;20477;-87
2022/03/26 07:36:07;;;;;;;6.97;5.05;;;;;;;17.60;41.32;99801.63;4940562;29;20027;-87
2022/03/26 07:38:33;;;;;;;6.07;4.50;;;;;;;17.61;41.29;99798.06;4941554;29;20450;-87
2022/03/26 07:40:58;;;;;;;6.78;4.72;;;;;;;17.61;41.39;99800.69;4940588;29;20366;-86
2022/03/26 07:43:24;;;;;;;7.30;4.35;;;;;;;17.61;41.62;99803.34;4939951;29;20056;-87
2022/03/26 07:45:49;;;;;;;6.25;4.50;;;;;;;17.62;41.49;99802.41;4939920;29;20035;-86
2022/03/26 07:48:15;;;;;;;6.95;5.20;;;;;;;17.62;41.63;99805.03;4957072;29;20031;-87
2022/03/26 07:50:41;;;;;;;6.63;4.57;;;;;;;17.63;41.54;99806.75;4940224;29;20120;-88
2022/03/26 07:53:06;;;;;;;6.20;4.68;;;;;;;17.64;41.51;99805.00;4939489;29;20373;-88
2022/03/26 07:55:32;;;;;;;7.55;4.55;;;;;;;17.64;41.62;99811.13;4940043;29;20034;-89
2022/03/26 07:57:57;;;;;;;7.35;4.97;;;;;;;17.66;41.70;99814.56;4956802;29;20023;-87
2022/03/26 08:00:23;;;;;;;7.75;5.00;;;;;;;17.65;41.89;99809.34;4939863;29;20027;-88
2022/03/26 08:02:49;;;;;;;7.60;5.35;;;;;;;17.66;41.76;99806.66;4945911;28;20054;-88
2022/03/26 08:05:15;;;;;;;8.45;5.53;;;;;;;17.66;41.82;99809.28;4959500;28;20070;-88
2022/03/26 08:07:41;;;;;;;8.93;5.90;;;;;;;17.69;41.72;99813.56;4962197;28;20048;-88
2022/03/26 08:10:07;;;;;;;7.55;5.07;;;;;;;17.70;41.87;99821.44;4964638;28;20039;-87
2022/03/26 08:12:32;;;;;;;7.10;5.22;;;;;;;17.71;41.99;99814.38;4962444;28;20101;-88
2022/03/26 08:14:59;;;;;;;5.95;4.80;;;;;;;17.70;41.75;99810.88;4962572;28;20034;-87
2022/03/26 08:17:28;;;;;;;6.47;5.10;;;;;;;17.73;42.04;99814.31;4962338;28;20419;-88
2022/03/26 08:19:53;;;;;;;7.50;5.47;;;;;;;17.73;41.94;99811.66;4962642;28;20034;-88
2022/03/26 08:22:19;;;;;;;6.97;5.38;;;;;;;17.73;41.97;99817.81;4962753;28;20031;-88
2022/03/26 08:24:44;;;;;;;8.40;5.95;;;;;;;17.73;42.08;99812.53;4963378;28;20026;-89
2022/03/26 08:27:10;;;;;;;6.93;5.05;;;;;;;17.73;42.09;99819.59;4963277;28;20059;-88
2022/03/26 08:29:35;;;;;;;8.15;5.60;;;;;;;17.74;42.05;99818.66;4979475;28;20030;-87
2022/03/26 08:32:04;;;;;;;9.05;6.13;;;;;;;17.76;42.19;99822.06;4979344;28;20476;-87
2022/03/26 08:34:30;;;;;;;9.63;6.68;;;;;;;17.75;42.27;99821.25;4962297;28;20034;-87
2022/03/26 08:36:55;;;;;;;8.75;6.00;;;;;;;17.74;42.45;99821.28;4962544;28;20033;-88
2022/03/26 08:39:21;;;;;;;9.10;6.32;;;;;;;17.74;42.56;99819.53;4965008;28;20027;-87
2022/03/26 08:41:47;;;;;;;8.85;5.97;;;;;;;17.74;42.94;99810.75;4963262;28;20026;-88
2022/03/26 08:44:14;;;;;;;8.43;6.40;;;;;;;17.71;43.09;99815.22;4961306;28;20030;-89
2022/03/26 08:46:39;;;;;;;9.00;6.40;;;;;;;17.75;42.42;99817.72;4961284;28;20034;-88
2022/03/26 08:49:05;;;;;;;8.30;5.85;;;;;;;17.75;43.23;99815.09;4978450;28;20034;-88
2022/03/26 08:51:31;;;;;;;8.02;6.30;;;;;;;17.75;42.79;99809.81;4961388;28;20030;-89
2022/03/26 08:53:56;;;;;;;10.52;6.40;;;;;;;17.77;42.77;99810.63;4979378;28;20050;-87
2022/03/26 08:56:22;;;;;;;9.18;6.40;;;;;;;17.79;43.15;99814.03;4963257;28;20039;-88
2022/03/26 08:58:48;;;;;;;9.98;7.13;;;;;;;17.82;43.00;99816.56;4963821;28;20065;-88
2022/03/26 09:01:14;;;;;;;8.10;6.20;;;;;;;17.82;42.99;99816.56;4965021;28;20031;-88
2022/03/26 09:03:40;;;;;;;9.27;7.13;;;;;;;17.84;42.84;99820.00;4964089;28;20101;-88
2022/03/26 09:06:07;;;;;;;10.18;6.65;;;;;;;17.87;42.74;99825.13;4963780;28;20027;-87
2022/03/26 09:08:36;;;;;;;8.65;6.97;;;;;;;17.89;42.67;99818.03;4963295;28;20041;-88
2022/03/26 09:11:04;;;;;;;9.50;6.90;;;;;;;17.90;42.57;99819.72;4963760;28;20031;-88
2022/03/26 09:13:30;;;;;;;8.38;6.28;;;;;;;17.93;42.68;99818.75;4966721;28;20022;-89
2022/03/26 09:15:56;;;;;;;8.73;6.47;;;;;;;17.93;42.55;99808.19;4966987;28;20038;-89
2022/03/26 09:18:22;;;;;;;8.82;6.40;;;;;;;17.95;42.50;99812.47;4967145;28;20111;-88
2022/03/26 09:20:48;;;;;;;10.07;6.97;;;;;;;17.96;42.59;99819.47;4966794;28;20058;-90
2022/03/26 09:23:14;;;;;;;9.25;6.60;;;;;;;17.99;42.57;99815.84;4968452;28;20039;-89
2022/03/26 09:25:41;;;;;;;9.32;6.25;;;;;;;18.01;42.51;99815.78;4969518;28;20035;-89
2022/03/26 09:28:07;;;;;;;9.00;6.63;;;;;;;18.01;42.84;99811.34;4967330;28;20019;-88
2022/03/26 09:30:33;;;;;;;8.10;6.57;;;;;;;18.01;42.42;99813.16;4977859;28;20453;-89
2022/03/26 09:32:59;;;;;;;8.57;6.30;;;;;;;18.04;42.65;99821.78;4978236;28;20065;-88
2022/03/26 09:35:26;;;;;;;9.48;6.75;;;;;;;18.07;42.60;99826.97;4978776;28;20074;-87
2022/03/26 09:37:51;;;;;;;8.77;6.03;;;;;;;18.08;42.40;99827.81;4961838;28;20029;-86
2022/03/26 09:40:20;;;;;;;9.35;6.45;;;;;;;18.10;42.33;99825.97;4961327;28;20026;-88
2022/03/26 09:42:46;;;;;;;8.38;6.32;;;;;;;18.10;42.46;99825.97;4963628;28;20029;-88
2022/03/26 09:45:12;;;;;;;8.52;6.40;;;;;;;18.12;42.40;99824.13;4962689;28;20054;-89
2022/03/26 09:47:38;;;;;;;10.25;6.72;;;;;;;18.13;42.33;99820.56;4961044;28;20105;-88
2022/03/26 09:50:08;;;;;;;9.77;6.22;;;;;;;18.15;42.72;99823.16;4961266;28;20460;-88
2022/03/26 09:52:34;;;;;;;8.50;6.63;;;;;;;18.16;42.42;99814.28;4963222;28;20026;-89
2022/03/26 09:55:00;;;;;;;8.55;6.78;;;;;;;18.17;42.33;99831.84;4985463;28;20461;-89
2022/03/26 09:57:26;;;;;;;9.00;6.47;;;;;;;18.17;42.42;99819.53;4969079;28;20030;-88
2022/03/26 09:59:52;;;;;;;9.45;6.68;;;;;;;18.17;42.69;99822.16;4975555;28;20054;-88
2022/03/26 10:02:17;;;;;;;10.52;6.65;;;;;;;18.19;42.48;99820.31;4969622;28;20037;-89
2022/03/26 10:04:44;;;;;;;11.40;6.60;;;;;;;18.20;42.49;99827.28;4948360;29;20462;-89
2022/03/26 10:07:11;;;;;;;8.85;6.43;;;;;;;18.21;42.39;99834.28;4950711;29;20413;-89
2022/03/26 10:09:42;;;;;;;9.88;7.28;;;;;;;18.23;42.52;99832.47;4950201;29;20042;-89
2022/03/26 10:12:12;;;;;;;8.75;6.50;;;;;;;18.24;42.65;99830.66;4949860;29;20027;-88
2022/03/26 10:14:42;;;;;;;9.88;6.90;;;;;;;18.25;42.26;99830.59;4948968;29;20031;-87
2022/03/26 10:17:13;;;;;;;10.30;6.78;;;;;;;18.27;42.43;99829.66;4944904;29;20023;-88
2022/03/26 10:19:44;;;;;;;8.25;6.05;;;;;;;18.27;42.37;99832.31;4949479;29;20023;-89
2022/03/26 10:22:41;;;;;;;9.02;6.25;;;;;;;18.29;42.65;99841.00;4966190;28;20026;-89
2022/03/26 10:25:10;;;;;;;8.80;6.00;;;;;;;18.30;42.40;99835.66;4966863;29;20033;-89
2022/03/26 10:27:42;;;;;;;8.65;6.22;;;;;;;18.30;42.64;99833.03;4949360;28;20034;-89
2022/03/26 10:30:10;;;;;;;7.18;6.30;;;;;;;18.32;42.49;99832.97;4949031;29;20098;-89
2022/03/26 10:32:44;;;;;;;9.18;6.53;;;;;;;18.33;42.46;99824.09;4951933;29;20023;-89
2022/03/26 10:35:10;;;;;;;8.65;6.30;;;;;;;18.33;42.35;99824.97;4951437;29;20042;-89
2022/03/26 10:37:46;;;;;;;9.52;6.32;;;;;;;18.36;42.33;99826.63;4951191;29;20031;-89
2022/03/26 10:40:36;;;;;;;9.45;6.47;;;;;;;18.37;42.40;99834.47;4967284;29;20469;-89
2022/03/26 10:43:11;;;;;;;8.13;6.15;;;;;;;18.38;42.58;99832.69;4939245;29;20030;-89
2022/03/26 10:45:51;;;;;;;9.15;6.88;;;;;;;18.40;42.39;99828.19;4946287;29;20027;-89
2022/03/26 10:48:29;;;;;;;8.00;6.00;;;;;;;18.40;42.53;99828.19;4949984;29;20083;-87
2022/03/26 10:51:01;;;;;;;9.00;6.22;;;;;;;18.41;42.42;99832.56;4965486;29;20035;-89
2022/03/26 10:53:41;;;;;;;9.55;6.40;;;;;;;18.43;42.55;99821.91;4948927;29;20031;-89
2022/03/26 10:56:12;;;;;;;8.13;6.00;;;;;;;18.43;42.35;99825.44;4949018;29;20031;-89
2022/03/26 10:58:39;;;;;;;8.77;6.45;;;;;;;18.45;42.66;99823.56;4948457;29;20035;-89
2022/03/26 11:01:05;;;;;;;9.38;5.88;;;;;;;18.46;42.68;99825.28;4948635;29;20030;-89
2022/03/26 11:03:32;;;;;;;9.95;6.15;;;;;;;18.47;42.48;99820.88;4961007;28;20095;-89
2022/03/26 11:05:58;;;;;;;9.52;6.72;;;;;;;18.49;42.73;99821.63;4968750;28;20042;-89
2022/03/26 11:08:29;;;;;;;8.40;5.63;;;;;;;18.49;42.61;99825.16;4967518;28;20037;-89
2022/03/26 11:10:56;;;;;;;9.63;6.28;;;;;;;18.50;42.70;99824.22;4966122;28;20031;-89
2022/03/26 11:13:24;;;;;;;9.05;5.95;;;;;;;18.52;42.69;99822.38;4968417;28;20037;-88
2022/03/26 11:15:57;;;;;;;7.43;5.50;;;;;;;18.51;42.65;99817.16;4966256;28;20115;-89
2022/03/26 11:18:51;;;;;;;7.65;5.60;;;;;;;18.54;42.45;99816.16;4965013;28;20455;-89
2022/03/26 11:21:41;;;;;;;10.35;6.22;;;;;;;18.55;42.63;99815.25;4968023;28;20039;-89
2022/03/26 11:24:41;;;;;;;8.43;6.10;;;;;;;18.56;42.65;99811.66;4967162;28;20031;-89
2022/03/26 11:27:32;;;;;;;8.93;6.13;;;;;;;18.56;42.71;99801.97;4966082;28;20167;-88
2022/03/26 11:30:16;;;;;;;8.40;5.78;;;;;;;18.58;42.83;99800.09;4959653;28;20031;-88
2022/03/26 11:32:50;;;;;;;8.18;6.00;;;;;;;18.59;42.45;99790.41;4964461;28;20031;-89
2022/03/26 11:35:18;;;;;;;8.35;6.18;;;;;;;18.60;42.63;99797.38;4967359;28;20045;-88
2022/03/26 11:37:52;;;;;;;10.65;6.18;;;;;;;18.61;42.51;99789.41;4967692;28;20358;-88